createdAt,value
2018-12-23T00:00:22.806Z,17.40
2018-12-23T00:02:50.027Z,17.40
2018-12-23T00:05:17.304Z,17.40
2018-12-23T00:07:44.516Z,17.40
2018-12-23T00:10:12.536Z,17.40
2018-12-23T00:12:39.749Z,17.40
2018-12-23T00:15:07.891Z,17.40
2018-12-23T00:17:35.112Z,17.40
2018-12-23T00:20:02.418Z,17.40
2018-12-23T00:22:29.632Z,17.30
2018-12-23T00:24:56.829Z,17.40
2018-12-23T00:27:25.961Z,17.40
2018-12-23T00:29:53.181Z,17.40
2018-12-23T00:32:21.218Z,17.40
2018-12-23T00:34:48.436Z,17.40
2018-12-23T00:37:15.650Z,17.30
2018-12-23T00:39:42.867Z,17.30
2018-12-23T00:42:11.012Z,17.30
2018-12-23T00:44:38.229Z,17.30
2018-12-23T00:47:06.408Z,17.30
2018-12-23T00:49:33.632Z,17.30
2018-12-23T00:52:00.857Z,17.30
2018-12-23T00:54:28.073Z,17.30
2018-12-23T00:56:56.083Z,17.30
2018-12-23T00:59:25.009Z,17.30
2018-12-23T01:01:52.228Z,17.30
2018-12-23T01:04:19.438Z,17.30
2018-12-23T01:06:46.655Z,17.20
2018-12-23T01:09:14.057Z,17.30
2018-12-23T01:11:41.272Z,17.30
2018-12-23T01:14:09.433Z,17.30
2018-12-23T01:16:37.596Z,17.20
2018-12-23T01:19:05.732Z,17.20
2018-12-23T01:21:32.947Z,17.20
2018-12-23T01:24:00.165Z,17.20
2018-12-23T01:26:28.313Z,17.20
2018-12-23T01:28:55.522Z,17.20
2018-12-23T01:31:23.973Z,17.20
2018-12-23T01:33:51.197Z,17.20
2018-12-23T01:36:18.431Z,17.20
2018-12-23T01:38:45.645Z,17.20
2018-12-23T01:41:12.859Z,17.20
2018-12-23T01:43:40.116Z,17.20
2018-12-23T01:46:07.339Z,17.20
2018-12-23T01:48:34.867Z,17.20
2018-12-23T01:51:02.146Z,17.20
2018-12-23T01:53:30.314Z,17.20
2018-12-23T01:55:57.529Z,17.20
2018-12-23T01:58:25.553Z,17.20
2018-12-23T02:00:52.764Z,17.20
2018-12-23T02:03:20.968Z,17.20
2018-12-23T02:05:48.181Z,17.20
2018-12-23T02:08:16.315Z,17.20
2018-12-23T02:10:43.537Z,17.20
2018-12-23T02:13:11.671Z,17.20
2018-12-23T02:15:39.812Z,17.20
2018-12-23T02:18:07.984Z,17.20
2018-12-23T02:20:35.244Z,17.20
2018-12-23T02:23:03.317Z,17.10
2018-12-23T02:25:31.367Z,17.20
2018-12-23T02:27:59.398Z,17.20
2018-12-23T02:30:27.582Z,17.20
2018-12-23T02:32:55.733Z,17.20
2018-12-23T02:35:22.959Z,17.20
2018-12-23T02:37:51.017Z,17.10
2018-12-23T02:40:18.239Z,17.20
2018-12-23T02:42:46.273Z,17.20
2018-12-23T02:45:14.408Z,17.10
2018-12-23T02:47:41.620Z,17.10
2018-12-23T02:50:08.843Z,17.10
2018-12-23T02:52:36.984Z,17.10
2018-12-23T02:55:04.290Z,17.10
2018-12-23T02:57:32.485Z,17.10
2018-12-23T02:59:59.711Z,17.10
2018-12-23T03:02:27.870Z,17.10
2018-12-23T03:04:55.415Z,17.10
2018-12-23T03:07:24.406Z,17.00
2018-12-23T03:09:51.626Z,17.10
2018-12-23T03:12:19.648Z,17.00
2018-12-23T03:14:47.824Z,17.10
2018-12-23T03:17:15.825Z,17.10
2018-12-23T03:19:43.055Z,17.10
2018-12-23T03:22:10.299Z,17.10
2018-12-23T03:24:37.511Z,17.10
2018-12-23T03:27:04.734Z,17.10
2018-12-23T03:29:31.947Z,17.10
2018-12-23T03:32:00.144Z,17.10
2018-12-23T03:34:28.274Z,17.10
2018-12-23T03:36:55.516Z,17.00
2018-12-23T03:39:22.728Z,17.10
2018-12-23T03:41:50.941Z,17.00
2018-12-23T03:44:18.200Z,17.00
2018-12-23T03:46:46.221Z,17.00
2018-12-23T03:49:15.152Z,17.00
2018-12-23T03:51:42.405Z,17.00
2018-12-23T03:54:09.631Z,17.00
2018-12-23T03:56:36.851Z,17.00
2018-12-23T03:59:04.073Z,17.00
2018-12-23T04:01:32.083Z,17.00
2018-12-23T04:03:59.295Z,17.00
2018-12-23T04:06:27.259Z,17.00
2018-12-23T04:08:55.400Z,17.00
2018-12-23T04:11:24.358Z,17.00
2018-12-23T04:13:52.551Z,17.00
2018-12-23T04:16:20.747Z,17.00
2018-12-23T04:18:47.948Z,17.00
2018-12-23T04:21:16.075Z,17.00
2018-12-23T04:23:44.218Z,17.00
2018-12-23T04:26:11.427Z,17.00
2018-12-23T04:28:38.647Z,17.00
2018-12-23T04:31:05.872Z,17.00
2018-12-23T04:33:33.973Z,17.00
2018-12-23T04:36:02.057Z,17.00
2018-12-23T04:38:29.278Z,17.00
2018-12-23T04:40:57.303Z,17.00
2018-12-23T04:43:25.209Z,17.00
2018-12-23T04:45:52.428Z,17.00
2018-12-23T04:48:19.642Z,16.90
2018-12-23T04:50:47.648Z,16.90
2018-12-23T04:53:14.877Z,17.00
2018-12-23T04:55:42.097Z,17.00
2018-12-23T04:58:10.281Z,17.00
2018-12-23T05:00:37.496Z,16.90
2018-12-23T05:03:04.704Z,17.00
2018-12-23T05:05:31.922Z,17.00
2018-12-23T05:07:59.138Z,17.00
2018-12-23T05:10:26.362Z,17.00
2018-12-23T05:12:54.099Z,17.10
2018-12-23T05:15:21.315Z,17.10
2018-12-23T05:17:48.534Z,17.20
2018-12-23T05:20:15.751Z,17.20
2018-12-23T05:22:42.979Z,17.20
2018-12-23T05:25:10.238Z,17.20
2018-12-23T05:27:37.445Z,17.30
2018-12-23T05:30:04.793Z,17.30
2018-12-23T05:32:32.009Z,17.40
2018-12-23T05:35:00.016Z,17.40
2018-12-23T05:37:28.160Z,17.40
2018-12-23T05:39:56.306Z,17.30
2018-12-23T05:42:25.305Z,17.40
2018-12-23T05:44:53.426Z,17.40
2018-12-23T05:47:20.661Z,17.40
2018-12-23T05:49:47.960Z,17.40
2018-12-23T05:52:15.983Z,17.40
2018-12-23T05:54:44.079Z,17.40
2018-12-23T05:57:12.410Z,17.40
2018-12-23T05:59:39.630Z,17.50
2018-12-23T06:02:06.848Z,17.40
2018-12-23T06:04:34.062Z,17.40
2018-12-23T06:07:02.223Z,17.40
2018-12-23T06:09:29.444Z,17.40
2018-12-23T06:11:56.657Z,17.40
2018-12-23T06:14:24.568Z,17.40
2018-12-23T06:16:52.625Z,17.40
2018-12-23T06:19:20.623Z,17.40
2018-12-23T06:21:47.844Z,17.40
2018-12-23T06:24:15.862Z,17.40
2018-12-23T06:26:43.074Z,17.40
2018-12-23T06:29:11.106Z,17.50
2018-12-23T06:31:39.238Z,17.50
2018-12-23T06:34:07.395Z,17.50
2018-12-23T06:36:34.622Z,17.50
2018-12-23T06:39:02.630Z,17.50
2018-12-23T06:41:30.769Z,17.40
2018-12-23T06:43:58.933Z,17.40
2018-12-23T06:46:27.065Z,17.40
2018-12-23T06:48:56.084Z,17.40
2018-12-23T06:51:25.394Z,17.40
2018-12-23T06:53:52.615Z,17.50
2018-12-23T06:56:19.863Z,17.50
2018-12-23T06:58:47.090Z,17.50
2018-12-23T07:01:15.156Z,17.50
2018-12-23T07:03:43.223Z,17.50
2018-12-23T07:06:10.459Z,17.50
2018-12-23T07:08:37.718Z,17.50
2018-12-23T07:11:04.930Z,17.50
2018-12-23T07:13:32.153Z,17.50
2018-12-23T07:16:00.288Z,17.50
2018-12-23T07:18:28.463Z,17.50
2018-12-23T07:20:56.639Z,17.50
2018-12-23T07:23:24.591Z,17.50
2018-12-23T07:25:52.600Z,17.50
2018-12-23T07:28:19.827Z,17.50
2018-12-23T07:30:47.045Z,17.50
2018-12-23T07:33:14.304Z,17.60
2018-12-23T07:35:41.561Z,17.60
2018-12-23T07:38:08.773Z,17.60
2018-12-23T07:40:35.987Z,17.50
2018-12-23T07:43:03.236Z,17.60
2018-12-23T07:45:31.283Z,17.50
2018-12-23T07:47:58.531Z,17.50
2018-12-23T07:50:25.742Z,17.50
2018-12-23T07:52:53.000Z,17.60
2018-12-23T07:55:21.014Z,17.50
2018-12-23T07:57:49.158Z,17.60
2018-12-23T08:00:16.377Z,17.60
2018-12-23T08:02:44.436Z,17.60
2018-12-23T08:05:11.689Z,17.60
2018-12-23T08:07:38.914Z,17.60
2018-12-23T08:10:06.128Z,17.60
2018-12-23T08:12:34.141Z,17.60
2018-12-23T08:15:01.393Z,17.60
2018-12-23T08:17:28.618Z,17.60
2018-12-23T08:19:56.691Z,17.60
2018-12-23T08:22:24.560Z,17.60
2018-12-23T08:24:51.809Z,17.60
2018-12-23T08:27:19.783Z,17.60
2018-12-23T08:29:48.001Z,17.60
2018-12-23T08:32:15.225Z,17.60
2018-12-23T08:34:42.436Z,17.60
2018-12-23T08:37:10.498Z,17.60
2018-12-23T08:39:37.724Z,17.60
2018-12-23T08:42:04.975Z,17.70
2018-12-23T08:44:33.111Z,17.60
2018-12-23T08:47:00.371Z,17.70
2018-12-23T08:49:28.538Z,17.70
2018-12-23T08:51:56.711Z,17.60
2018-12-23T08:54:25.195Z,17.60
2018-12-23T08:56:52.454Z,17.70
2018-12-23T08:59:20.556Z,17.60
2018-12-23T09:01:48.604Z,17.70
2018-12-23T09:04:16.606Z,17.70
2018-12-23T09:06:44.777Z,17.60
2018-12-23T09:09:12.947Z,17.70
2018-12-23T09:11:42.909Z,17.60
2018-12-23T09:14:10.366Z,17.60
2018-12-23T09:16:38.542Z,17.60
2018-12-23T09:19:06.680Z,17.70
2018-12-23T09:21:34.833Z,17.70
2018-12-23T09:24:03.033Z,17.70
2018-12-23T09:26:30.397Z,17.70
2018-12-23T09:28:57.625Z,17.70
2018-12-23T09:31:25.817Z,17.70
2018-12-23T09:33:54.493Z,17.70
2018-12-23T09:36:22.515Z,17.70
2018-12-23T09:38:50.524Z,17.70
2018-12-23T09:41:17.775Z,17.60
2018-12-23T09:43:44.988Z,17.60
2018-12-23T09:46:12.212Z,17.60
2018-12-23T09:48:39.426Z,17.70
2018-12-23T09:51:06.640Z,17.60
2018-12-23T09:53:33.850Z,17.70
2018-12-23T09:56:01.059Z,17.70
2018-12-23T09:58:28.405Z,17.70
2018-12-23T10:00:55.597Z,17.70
2018-12-23T10:03:22.820Z,17.60
2018-12-23T10:05:50.038Z,17.60
2018-12-23T10:08:17.287Z,17.60
2018-12-23T10:10:44.503Z,17.60
2018-12-23T10:13:11.720Z,17.60
2018-12-23T10:15:39.739Z,17.60
2018-12-23T10:18:06.963Z,17.60
2018-12-23T10:20:34.199Z,17.60
2018-12-23T10:23:01.416Z,17.60
2018-12-23T10:25:28.619Z,17.40
2018-12-23T10:27:55.833Z,17.20
2018-12-23T10:30:24.713Z,17.00
2018-12-23T10:32:51.978Z,16.90
2018-12-23T10:35:19.188Z,16.90
2018-12-23T10:37:46.402Z,16.80
2018-12-23T10:40:13.617Z,16.80
2018-12-23T10:42:40.951Z,16.70
2018-12-23T10:45:08.230Z,16.70
2018-12-23T10:47:36.521Z,16.70
2018-12-23T10:50:03.980Z,16.70
2018-12-23T10:52:31.191Z,16.70
2018-12-23T10:54:58.444Z,16.60
2018-12-23T10:57:25.774Z,16.70
2018-12-23T10:59:55.014Z,16.70
2018-12-23T11:02:22.248Z,16.70
2018-12-23T11:04:50.423Z,16.70
2018-12-23T11:07:18.437Z,16.60
2018-12-23T11:09:45.669Z,16.80
2018-12-23T11:12:13.521Z,17.00
2018-12-23T11:14:40.737Z,17.00
2018-12-23T11:17:08.957Z,16.90
2018-12-23T11:19:36.208Z,16.80
2018-12-23T11:22:04.226Z,16.80
2018-12-23T11:24:31.463Z,16.80
2018-12-23T11:26:58.685Z,16.90
2018-12-23T11:29:26.838Z,17.10
2018-12-23T11:31:55.017Z,17.20
2018-12-23T11:34:22.230Z,17.30
2018-12-23T11:36:50.375Z,17.40
2018-12-23T11:39:17.592Z,17.40
2018-12-23T11:41:44.800Z,17.40
2018-12-23T11:44:12.021Z,17.50
2018-12-23T11:46:40.049Z,17.60
2018-12-23T11:49:07.258Z,17.60
2018-12-23T11:51:34.526Z,17.60
2018-12-23T11:54:01.754Z,17.60
2018-12-23T11:56:28.971Z,17.60
2018-12-23T11:58:56.249Z,17.60
2018-12-23T12:01:23.958Z,17.70
2018-12-23T12:03:51.178Z,17.70
2018-12-23T12:06:18.389Z,17.70
2018-12-23T12:08:45.599Z,17.70
2018-12-23T12:11:12.816Z,17.70
2018-12-23T12:13:40.023Z,17.70
2018-12-23T12:16:07.248Z,17.70
2018-12-23T12:18:34.521Z,17.70
2018-12-23T12:21:01.743Z,17.70
2018-12-23T12:23:28.957Z,17.70
2018-12-23T12:25:56.173Z,17.70
2018-12-23T12:28:24.344Z,17.70
2018-12-23T12:30:51.553Z,17.70
2018-12-23T12:33:48.910Z,17.70
2018-12-23T12:36:19.786Z,17.70
2018-12-23T12:38:52.057Z,17.60
2018-12-23T12:41:17.227Z,17.70
2018-12-23T12:43:45.847Z,17.70
2018-12-23T12:46:17.018Z,17.70
2018-12-23T12:48:47.975Z,17.70
2018-12-23T12:51:15.900Z,17.70
2018-12-23T12:53:46.505Z,17.70
2018-12-23T12:56:14.441Z,17.70
2018-12-23T12:58:42.375Z,17.70
2018-12-23T13:01:13.443Z,17.70
2018-12-23T13:03:41.365Z,17.80
2018-12-23T13:06:09.251Z,17.70
2018-12-23T13:08:37.136Z,17.70
2018-12-23T13:11:05.029Z,17.70
2018-12-23T13:13:33.251Z,17.80
2018-12-23T13:16:01.154Z,17.60
2018-12-23T13:18:29.044Z,17.50
2018-12-23T13:20:56.935Z,17.50
2018-12-23T13:23:26.476Z,17.30
2018-12-23T13:25:57.240Z,17.10
2018-12-23T13:28:27.952Z,17.00
2018-12-23T13:31:01.875Z,16.90
2018-12-23T13:33:32.419Z,16.80
2018-12-23T13:36:00.309Z,16.80
2018-12-23T13:38:28.219Z,16.90
2018-12-23T13:40:57.732Z,16.90
2018-12-23T13:43:39.636Z,16.90
2018-12-23T13:46:09.204Z,16.90
2018-12-23T13:48:38.721Z,17.10
2018-12-23T13:51:14.192Z,17.20
2018-12-23T13:54:00.293Z,17.20
2018-12-23T13:56:32.605Z,17.20
2018-12-23T13:59:02.166Z,17.00
2018-12-23T14:01:46.705Z,16.90
2018-12-23T14:04:28.922Z,16.80
2018-12-23T14:07:01.439Z,16.80
2018-12-23T14:09:43.754Z,16.80
2018-12-23T14:12:12.001Z,16.70
2018-12-23T14:14:40.262Z,16.90
2018-12-23T14:17:08.159Z,16.90
2018-12-23T14:19:36.061Z,16.80
2018-12-23T14:22:04.359Z,16.70
2018-12-23T14:24:32.652Z,16.70
2018-12-23T14:27:00.560Z,16.70
2018-12-23T14:29:28.442Z,16.70
2018-12-23T14:31:57.098Z,16.60
2018-12-23T14:34:25.814Z,16.60
2018-12-23T14:36:53.951Z,16.60
2018-12-23T14:39:27.073Z,16.60
2018-12-23T14:41:51.431Z,16.60
2018-12-23T14:44:19.367Z,16.60
2018-12-23T14:46:47.254Z,16.60
2018-12-23T14:49:19.965Z,16.60
2018-12-23T14:51:47.858Z,16.60
2018-12-23T14:54:15.746Z,16.60
2018-12-23T14:56:43.616Z,16.60
2018-12-23T14:59:11.559Z,16.50
2018-12-23T15:01:39.444Z,16.50
2018-12-23T15:04:10.137Z,16.50
2018-12-23T15:06:38.036Z,16.50
2018-12-23T15:09:06.336Z,16.50
2018-12-23T15:11:37.313Z,16.50
2018-12-23T15:14:05.240Z,16.50
2018-12-23T15:16:33.129Z,16.50
2018-12-23T15:19:01.153Z,16.50
2018-12-23T15:21:32.114Z,16.50
2018-12-23T15:24:00.038Z,16.50
2018-12-23T15:26:27.923Z,16.50
2018-12-23T15:28:55.814Z,16.50
2018-12-23T15:31:23.839Z,16.50
2018-12-23T15:33:51.788Z,16.50
2018-12-23T15:36:19.780Z,16.40
2018-12-23T15:38:47.659Z,16.40
2018-12-23T15:41:18.450Z,16.40
2018-12-23T15:43:46.372Z,16.40
2018-12-23T15:46:14.283Z,16.30
2018-12-23T15:48:42.196Z,16.30
2018-12-23T15:51:10.100Z,16.30
2018-12-23T15:53:40.986Z,16.30
2018-12-23T15:56:11.887Z,16.30
2018-12-23T15:58:39.766Z,16.30
2018-12-23T16:01:07.711Z,16.30
2018-12-23T16:03:35.589Z,16.30
2018-12-23T16:06:03.477Z,16.30
2018-12-23T16:08:31.363Z,16.30
2018-12-23T16:10:59.309Z,16.40
2018-12-23T16:13:27.196Z,16.40
2018-12-23T16:15:58.068Z,16.50
2018-12-23T16:18:29.165Z,16.70
2018-12-23T16:20:57.046Z,16.90
2018-12-23T16:23:24.935Z,16.90
2018-12-23T16:25:53.170Z,16.80
2018-12-23T16:28:21.059Z,17.00
2018-12-23T16:30:48.949Z,17.10
2018-12-23T16:33:20.348Z,17.20
2018-12-23T16:35:48.239Z,17.30
2018-12-23T16:38:18.969Z,17.40
2018-12-23T16:40:49.601Z,17.40
2018-12-23T16:43:17.557Z,17.40
2018-12-23T16:45:48.425Z,17.40
2018-12-23T16:48:19.085Z,17.40
2018-12-23T16:50:49.832Z,17.50
2018-12-23T16:53:17.766Z,17.40
2018-12-23T16:55:45.710Z,17.50
2018-12-23T16:58:16.320Z,17.50
2018-12-23T17:00:47.148Z,17.50
2018-12-23T17:03:18.541Z,17.50
2018-12-23T17:05:49.588Z,17.50
2018-12-23T17:08:20.244Z,17.50
2018-12-23T17:10:51.216Z,17.50
2018-12-23T17:13:22.079Z,17.50
2018-12-23T17:15:53.007Z,17.60
2018-12-23T17:18:25.548Z,17.50
2018-12-23T17:20:56.424Z,17.50
2018-12-23T17:23:27.358Z,17.50
2018-12-23T17:25:58.436Z,17.50
2018-12-23T17:28:29.058Z,17.50
2018-12-23T17:30:59.742Z,17.60
2018-12-23T17:33:27.628Z,17.60
2018-12-23T17:35:57.146Z,17.50
2018-12-23T17:38:25.118Z,17.50
2018-12-23T17:40:53.016Z,17.50
2018-12-23T17:43:24.721Z,17.50
2018-12-23T17:45:53.009Z,17.60
2018-12-23T17:48:26.185Z,17.50
2018-12-23T17:50:57.487Z,17.60
2018-12-23T17:53:25.744Z,17.50
2018-12-23T17:55:56.675Z,17.60
2018-12-23T17:58:24.573Z,17.60
2018-12-23T18:00:52.474Z,17.60
2018-12-23T18:03:20.363Z,17.60
2018-12-23T18:05:48.300Z,17.60
2018-12-23T18:08:16.195Z,17.60
2018-12-23T18:10:44.085Z,17.60
2018-12-23T18:13:15.388Z,17.60
2018-12-23T18:15:46.367Z,17.60
2018-12-23T18:18:14.226Z,17.60
2018-12-23T18:20:42.122Z,17.60
2018-12-23T18:23:10.012Z,17.60
2018-12-23T18:25:37.907Z,17.60
2018-12-23T18:28:05.802Z,17.60
2018-12-23T18:30:33.692Z,17.60
2018-12-23T18:33:01.583Z,17.60
2018-12-23T18:35:32.299Z,17.60
2018-12-23T18:38:02.995Z,17.60
2018-12-23T18:40:33.371Z,17.60
2018-12-23T18:43:03.444Z,17.60
2018-12-23T18:45:31.335Z,17.60
2018-12-23T18:48:02.610Z,17.60
2018-12-23T18:50:33.298Z,17.70
2018-12-23T18:53:04.008Z,17.70
2018-12-23T18:55:35.252Z,17.60
2018-12-23T18:58:05.944Z,17.60
2018-12-23T19:00:36.628Z,17.60
2018-12-23T19:03:04.530Z,17.60
2018-12-23T19:05:32.833Z,17.70
2018-12-23T19:08:03.537Z,17.60
2018-12-23T19:10:41.902Z,17.60
2018-12-23T19:13:26.538Z,17.70
2018-12-23T19:16:14.505Z,17.70
2018-12-23T19:18:56.526Z,17.70
2018-12-23T19:21:35.170Z,17.60
2018-12-23T19:24:10.935Z,17.60
2018-12-23T19:26:55.825Z,17.60
2018-12-23T19:29:25.355Z,17.60
2018-12-23T19:31:58.180Z,17.70
2018-12-23T19:34:42.814Z,17.60
2018-12-23T19:37:12.781Z,17.70
2018-12-23T19:39:51.406Z,17.60
2018-12-23T19:42:39.543Z,17.70
2018-12-23T19:45:26.557Z,17.70
2018-12-23T19:48:11.332Z,17.70
2018-12-23T19:50:59.753Z,17.60
2018-12-23T19:53:29.313Z,17.70
2018-12-23T19:56:01.526Z,17.70
2018-12-23T19:58:48.125Z,17.70
2018-12-23T20:01:34.815Z,17.70
2018-12-23T20:04:10.292Z,17.70
2018-12-23T20:06:40.147Z,17.70
2018-12-23T20:09:12.428Z,17.70
2018-12-23T20:11:58.809Z,17.70
2018-12-23T20:14:34.424Z,17.70
2018-12-23T20:17:15.780Z,17.70
2018-12-23T20:19:57.098Z,17.70
2018-12-23T20:22:26.920Z,17.70
2018-12-23T20:25:13.563Z,17.70
2018-12-23T20:27:46.172Z,17.70
2018-12-23T20:30:15.685Z,17.70
2018-12-23T20:32:45.715Z,17.70
2018-12-23T20:35:35.002Z,17.70
2018-12-23T20:38:10.686Z,17.70
2018-12-23T20:40:56.971Z,17.70
2018-12-23T20:43:44.678Z,17.70
2018-12-23T20:46:29.937Z,17.70
2018-12-23T20:49:02.857Z,17.70
2018-12-23T20:51:41.407Z,17.70
2018-12-23T20:54:27.621Z,17.70
2018-12-23T20:57:13.962Z,17.70
2018-12-23T20:59:43.500Z,17.80
2018-12-23T21:02:18.993Z,17.70
2018-12-23T21:04:57.765Z,17.70
2018-12-23T21:07:33.599Z,17.80
2018-12-23T21:10:03.123Z,17.80
2018-12-23T21:12:41.383Z,17.80
2018-12-23T21:15:27.598Z,17.70
2018-12-23T21:18:09.190Z,17.70
2018-12-23T21:20:55.627Z,17.70
2018-12-23T21:23:28.718Z,17.70
2018-12-23T21:26:16.681Z,17.60
2018-12-23T21:29:04.411Z,17.70
2018-12-23T21:31:42.738Z,17.70
2018-12-23T21:34:28.935Z,17.60
2018-12-23T21:37:10.676Z,17.60
2018-12-23T21:39:49.392Z,17.60
2018-12-23T21:42:31.288Z,17.60
2018-12-23T21:45:03.986Z,17.60
2018-12-23T21:47:36.170Z,17.60
2018-12-23T21:50:11.412Z,17.60
2018-12-23T21:52:40.953Z,17.60
2018-12-23T21:55:25.967Z,17.60
2018-12-23T21:58:13.777Z,17.60
2018-12-23T22:00:48.870Z,17.50
2018-12-23T22:03:33.421Z,17.50
2018-12-23T22:06:09.066Z,17.50
2018-12-23T22:08:44.372Z,17.60
2018-12-23T22:11:19.986Z,17.60
2018-12-23T22:13:50.565Z,17.50
2018-12-23T22:16:18.488Z,17.50
2018-12-23T22:18:49.367Z,17.50
2018-12-23T22:21:20.059Z,17.50
2018-12-23T22:23:50.961Z,17.50
2018-12-23T22:26:22.079Z,17.50
2018-12-23T22:28:52.744Z,17.50
2018-12-23T22:31:20.833Z,17.50
2018-12-23T22:33:51.487Z,17.50
2018-12-23T22:36:19.433Z,17.50
2018-12-23T22:38:50.619Z,17.50
2018-12-23T22:41:18.881Z,17.50
2018-12-23T22:43:50.003Z,17.50
2018-12-23T22:46:17.875Z,17.50
2018-12-23T22:48:45.841Z,17.50
2018-12-23T22:51:16.903Z,17.50
2018-12-23T22:53:44.840Z,17.50
2018-12-23T22:56:13.108Z,17.50
2018-12-23T22:58:40.994Z,17.50
2018-12-23T23:01:08.908Z,17.40
2018-12-23T23:03:36.795Z,17.50
2018-12-23T23:06:04.689Z,17.40
2018-12-23T23:08:32.578Z,17.50
2018-12-23T23:11:00.474Z,17.40
2018-12-23T23:13:28.369Z,17.40
2018-12-23T23:15:56.276Z,17.40
2018-12-23T23:18:24.569Z,17.40
2018-12-23T23:20:52.454Z,17.40
2018-12-23T23:23:20.335Z,17.40
2018-12-23T23:25:48.561Z,17.40
2018-12-23T23:28:16.458Z,17.40
2018-12-23T23:30:44.340Z,17.40
2018-12-23T23:33:12.229Z,17.40
2018-12-23T23:35:40.167Z,17.40
2018-12-23T23:38:08.049Z,17.40
2018-12-23T23:40:39.007Z,17.40
2018-12-23T23:43:06.917Z,17.40
2018-12-23T23:45:34.813Z,17.30
2018-12-23T23:48:02.706Z,17.40
2018-12-23T23:50:30.764Z,17.40
2018-12-23T23:52:58.658Z,17.40
2018-12-23T23:55:26.549Z,17.50
2018-12-23T23:57:54.782Z,17.60
